sensor_id;sensor_type;location;lat;lon;timestamp;P1;durP1;ratioP1;P2;durP2;ratioP2
22282;SDS011;11310;51.528;21.204;2023-11-19T00:01:33;20.60;;;9.60;;
22282;SDS011;11310;51.528;21.204;2023-11-19T00:04:03;21.38;;;9.77;;
22282;SDS011;11310;51.528;21.204;2023-11-19T00:06:33;19.70;;;9.82;;
22282;SDS011;11310;51.528;21.204;2023-11-19T00:09:03;21.27;;;9.60;;
22282;SDS011;11310;51.528;21.204;2023-11-19T00:11:37;18.48;;;9.15;;
22282;SDS011;11310;51.528;21.204;2023-11-19T00:14:07;20.42;;;9.75;;
22282;SDS011;11310;51.528;21.204;2023-11-19T00:16:43;21.05;;;9.32;;
22282;SDS011;11310;51.528;21.204;2023-11-19T00:19:14;20.33;;;9.48;;
22282;SDS011;11310;51.528;21.204;2023-11-19T00:21:43;20.48;;;9.38;;
22282;SDS011;11310;51.528;21.204;2023-11-19T00:24:14;18.83;;;8.73;;
22282;SDS011;11310;51.528;21.204;2023-11-19T00:26:44;20.65;;;9.65;;
22282;SDS011;11310;51.528;21.204;2023-11-19T00:29:14;18.90;;;9.27;;
22282;SDS011;11310;51.528;21.204;2023-11-19T00:31:42;18.73;;;9.40;;
22282;SDS011;11310;51.528;21.204;2023-11-19T00:34:11;17.27;;;8.98;;
22282;SDS011;11310;51.528;21.204;2023-11-19T00:36:42;20.58;;;10.02;;
22282;SDS011;11310;51.528;21.204;2023-11-19T00:39:11;18.88;;;9.27;;
22282;SDS011;11310;51.528;21.204;2023-11-19T00:41:42;20.57;;;9.13;;
22282;SDS011;11310;51.528;21.204;2023-11-19T00:44:16;18.23;;;8.27;;
22282;SDS011;11310;51.528;21.204;2023-11-19T00:46:45;16.45;;;8.13;;
22282;SDS011;11310;51.528;21.204;2023-11-19T00:49:13;20.67;;;9.07;;
22282;SDS011;11310;51.528;21.204;2023-11-19T00:51:42;20.67;;;9.63;;
22282;SDS011;11310;51.528;21.204;2023-11-19T00:54:15;18.90;;;10.00;;
22282;SDS011;11310;51.528;21.204;2023-11-19T00:56:49;22.10;;;10.68;;
22282;SDS011;11310;51.528;21.204;2023-11-19T00:59:22;20.83;;;10.10;;
22282;SDS011;11310;51.528;21.204;2023-11-19T01:01:50;21.40;;;9.93;;
22282;SDS011;11310;51.528;21.204;2023-11-19T01:04:23;23.35;;;10.00;;
22282;SDS011;11310;51.528;21.204;2023-11-19T01:06:55;23.67;;;10.73;;
22282;SDS011;11310;51.528;21.204;2023-11-19T01:09:24;21.73;;;10.25;;
22282;SDS011;11310;51.528;21.204;2023-11-19T01:11:55;21.05;;;10.23;;
22282;SDS011;11310;51.528;21.204;2023-11-19T01:14:24;21.83;;;10.10;;
22282;SDS011;11310;51.528;21.204;2023-11-19T01:16:54;23.42;;;11.38;;
22282;SDS011;11310;51.528;21.204;2023-11-19T01:19:22;21.38;;;9.95;;
22282;SDS011;11310;51.528;21.204;2023-11-19T01:21:52;20.40;;;9.88;;
22282;SDS011;11310;51.528;21.204;2023-11-19T01:24:23;19.90;;;10.05;;
22282;SDS011;11310;51.528;21.204;2023-11-19T01:26:55;20.83;;;8.98;;
22282;SDS011;11310;51.528;21.204;2023-11-19T01:29:28;20.98;;;10.55;;
22282;SDS011;11310;51.528;21.204;2023-11-19T01:31:56;20.10;;;9.27;;
22282;SDS011;11310;51.528;21.204;2023-11-19T01:34:26;21.10;;;10.10;;
22282;SDS011;11310;51.528;21.204;2023-11-19T01:36:55;19.77;;;9.75;;
22282;SDS011;11310;51.528;21.204;2023-11-19T01:39:25;20.08;;;9.77;;
22282;SDS011;11310;51.528;21.204;2023-11-19T01:41:54;21.25;;;9.40;;
22282;SDS011;11310;51.528;21.204;2023-11-19T01:46:54;20.23;;;9.60;;
22282;SDS011;11310;51.528;21.204;2023-11-19T01:49:28;22.23;;;9.73;;
22282;SDS011;11310;51.528;21.204;2023-11-19T01:51:57;24.13;;;10.18;;
22282;SDS011;11310;51.528;21.204;2023-11-19T01:54:29;20.13;;;9.40;;
22282;SDS011;11310;51.528;21.204;2023-11-19T01:57:00;24.73;;;10.00;;
22282;SDS011;11310;51.528;21.204;2023-11-19T01:59:29;22.52;;;10.30;;
22282;SDS011;11310;51.528;21.204;2023-11-19T02:01:57;22.17;;;10.05;;
22282;SDS011;11310;51.528;21.204;2023-11-19T02:04:28;19.70;;;10.18;;
22282;SDS011;11310;51.528;21.204;2023-11-19T02:06:58;21.60;;;10.32;;
22282;SDS011;11310;51.528;21.204;2023-11-19T02:09:26;21.40;;;9.88;;
22282;SDS011;11310;51.528;21.204;2023-11-19T02:11:57;19.38;;;10.05;;
22282;SDS011;11310;51.528;21.204;2023-11-19T02:14:28;20.98;;;10.07;;
22282;SDS011;11310;51.528;21.204;2023-11-19T02:16:57;21.58;;;10.73;;
22282;SDS011;11310;51.528;21.204;2023-11-19T02:19:25;23.50;;;10.50;;
22282;SDS011;11310;51.528;21.204;2023-11-19T02:21:59;18.05;;;9.23;;
22282;SDS011;11310;51.528;21.204;2023-11-19T02:24:32;18.13;;;9.00;;
22282;SDS011;11310;51.528;21.204;2023-11-19T02:27:02;20.73;;;9.77;;
22282;SDS011;11310;51.528;21.204;2023-11-19T02:29:38;19.67;;;9.57;;
22282;SDS011;11310;51.528;21.204;2023-11-19T02:32:09;19.90;;;9.38;;
22282;SDS011;11310;51.528;21.204;2023-11-19T02:34:40;18.85;;;9.13;;
22282;SDS011;11310;51.528;21.204;2023-11-19T02:37:09;18.02;;;8.63;;
22282;SDS011;11310;51.528;21.204;2023-11-19T02:39:39;16.95;;;8.43;;
22282;SDS011;11310;51.528;21.204;2023-11-19T02:42:08;20.05;;;9.25;;
22282;SDS011;11310;51.528;21.204;2023-11-19T02:44:44;17.17;;;8.45;;
22282;SDS011;11310;51.528;21.204;2023-11-19T02:47:15;19.00;;;8.85;;
22282;SDS011;11310;51.528;21.204;2023-11-19T02:49:44;18.45;;;8.32;;
22282;SDS011;11310;51.528;21.204;2023-11-19T02:52:13;16.33;;;7.18;;
22282;SDS011;11310;51.528;21.204;2023-11-19T02:54:45;16.83;;;6.88;;
22282;SDS011;11310;51.528;21.204;2023-11-19T02:57:14;16.55;;;7.72;;
22282;SDS011;11310;51.528;21.204;2023-11-19T02:59:50;14.80;;;6.72;;
22282;SDS011;11310;51.528;21.204;2023-11-19T03:02:19;14.45;;;6.75;;
22282;SDS011;11310;51.528;21.204;2023-11-19T03:04:48;15.60;;;6.70;;
22282;SDS011;11310;51.528;21.204;2023-11-19T03:07:21;16.30;;;7.38;;
22282;SDS011;11310;51.528;21.204;2023-11-19T03:09:52;15.60;;;6.10;;
22282;SDS011;11310;51.528;21.204;2023-11-19T03:14:51;12.68;;;5.68;;
22282;SDS011;11310;51.528;21.204;2023-11-19T03:17:19;14.43;;;5.93;;
22282;SDS011;11310;51.528;21.204;2023-11-19T03:19:48;11.55;;;5.53;;
22282;SDS011;11310;51.528;21.204;2023-11-19T03:22:17;11.60;;;6.00;;
22282;SDS011;11310;51.528;21.204;2023-11-19T03:24:50;12.57;;;6.03;;
22282;SDS011;11310;51.528;21.204;2023-11-19T03:27:19;13.88;;;6.43;;
22282;SDS011;11310;51.528;21.204;2023-11-19T03:29:47;14.07;;;6.55;;
22282;SDS011;11310;51.528;21.204;2023-11-19T03:32:18;14.18;;;6.80;;
22282;SDS011;11310;51.528;21.204;2023-11-19T03:34:47;12.80;;;6.28;;
22282;SDS011;11310;51.528;21.204;2023-11-19T03:37:16;15.95;;;7.10;;
22282;SDS011;11310;51.528;21.204;2023-11-19T03:39:44;15.75;;;7.07;;
22282;SDS011;11310;51.528;21.204;2023-11-19T03:42:15;15.98;;;6.72;;
22282;SDS011;11310;51.528;21.204;2023-11-19T03:44:44;16.83;;;6.85;;
22282;SDS011;11310;51.528;21.204;2023-11-19T03:47:12;16.35;;;7.32;;
22282;SDS011;11310;51.528;21.204;2023-11-19T03:49:42;15.35;;;7.13;;
22282;SDS011;11310;51.528;21.204;2023-11-19T03:52:11;13.63;;;6.60;;
22282;SDS011;11310;51.528;21.204;2023-11-19T03:54:48;14.85;;;6.65;;
22282;SDS011;11310;51.528;21.204;2023-11-19T03:57:17;15.15;;;6.95;;
22282;SDS011;11310;51.528;21.204;2023-11-19T03:59:47;13.45;;;6.57;;
22282;SDS011;11310;51.528;21.204;2023-11-19T04:02:15;12.70;;;6.55;;
22282;SDS011;11310;51.528;21.204;2023-11-19T04:04:46;13.35;;;6.53;;
22282;SDS011;11310;51.528;21.204;2023-11-19T04:09:44;14.07;;;7.03;;
22282;SDS011;11310;51.528;21.204;2023-11-19T04:12:13;16.52;;;7.72;;
22282;SDS011;11310;51.528;21.204;2023-11-19T04:14:42;14.98;;;7.00;;
22282;SDS011;11310;51.528;21.204;2023-11-19T04:17:11;15.80;;;6.80;;
22282;SDS011;11310;51.528;21.204;2023-11-19T04:19:41;13.98;;;6.85;;
22282;SDS011;11310;51.528;21.204;2023-11-19T04:22:14;17.15;;;7.80;;
22282;SDS011;11310;51.528;21.204;2023-11-19T04:24:43;16.08;;;7.90;;
22282;SDS011;11310;51.528;21.204;2023-11-19T04:27:13;15.07;;;7.43;;
22282;SDS011;11310;51.528;21.204;2023-11-19T04:29:42;13.73;;;7.03;;
22282;SDS011;11310;51.528;21.204;2023-11-19T04:32:14;14.73;;;6.82;;
22282;SDS011;11310;51.528;21.204;2023-11-19T04:34:43;12.35;;;6.00;;
22282;SDS011;11310;51.528;21.204;2023-11-19T04:37:13;16.17;;;7.22;;
22282;SDS011;11310;51.528;21.204;2023-11-19T04:39:43;14.23;;;6.88;;
22282;SDS011;11310;51.528;21.204;2023-11-19T04:42:15;15.25;;;6.43;;
22282;SDS011;11310;51.528;21.204;2023-11-19T04:44:44;14.48;;;6.63;;
22282;SDS011;11310;51.528;21.204;2023-11-19T04:47:13;13.48;;;6.38;;
22282;SDS011;11310;51.528;21.204;2023-11-19T04:49:42;13.23;;;6.65;;
22282;SDS011;11310;51.528;21.204;2023-11-19T04:52:11;13.27;;;7.10;;
22282;SDS011;11310;51.528;21.204;2023-11-19T04:54:42;14.70;;;7.13;;
22282;SDS011;11310;51.528;21.204;2023-11-19T04:57:15;15.52;;;6.78;;
22282;SDS011;11310;51.528;21.204;2023-11-19T04:59:44;16.48;;;7.50;;
22282;SDS011;11310;51.528;21.204;2023-11-19T05:02:14;13.65;;;6.90;;
22282;SDS011;11310;51.528;21.204;2023-11-19T05:07:16;14.68;;;6.78;;
22282;SDS011;11310;51.528;21.204;2023-11-19T05:09:51;14.80;;;6.93;;
22282;SDS011;11310;51.528;21.204;2023-11-19T05:12:20;13.43;;;6.43;;
22282;SDS011;11310;51.528;21.204;2023-11-19T05:14:49;12.18;;;6.32;;
22282;SDS011;11310;51.528;21.204;2023-11-19T05:17:18;14.18;;;6.40;;
22282;SDS011;11310;51.528;21.204;2023-11-19T05:19:47;16.20;;;6.72;;
22282;SDS011;11310;51.528;21.204;2023-11-19T05:22:16;15.38;;;7.00;;
22282;SDS011;11310;51.528;21.204;2023-11-19T05:24:45;14.75;;;7.15;;
22282;SDS011;11310;51.528;21.204;2023-11-19T05:27:17;15.10;;;6.95;;
22282;SDS011;11310;51.528;21.204;2023-11-19T05:29:50;14.85;;;6.75;;
22282;SDS011;11310;51.528;21.204;2023-11-19T05:32:19;15.23;;;7.38;;
22282;SDS011;11310;51.528;21.204;2023-11-19T05:34:48;17.08;;;6.78;;
22282;SDS011;11310;51.528;21.204;2023-11-19T05:37:18;13.38;;;6.45;;
22282;SDS011;11310;51.528;21.204;2023-11-19T05:39:47;14.15;;;6.97;;
22282;SDS011;11310;51.528;21.204;2023-11-19T05:42:17;17.27;;;7.30;;
22282;SDS011;11310;51.528;21.204;2023-11-19T05:44:46;13.75;;;6.45;;
22282;SDS011;11310;51.528;21.204;2023-11-19T05:47:20;14.85;;;7.22;;
22282;SDS011;11310;51.528;21.204;2023-11-19T05:49:51;11.77;;;6.05;;
22282;SDS011;11310;51.528;21.204;2023-11-19T05:52:21;12.32;;;6.35;;
22282;SDS011;11310;51.528;21.204;2023-11-19T05:54:57;13.43;;;6.28;;
22282;SDS011;11310;51.528;21.204;2023-11-19T05:57:28;12.10;;;6.15;;
22282;SDS011;11310;51.528;21.204;2023-11-19T05:59:57;18.63;;;6.60;;
22282;SDS011;11310;51.528;21.204;2023-11-19T06:02:37;11.75;;;6.13;;
22282;SDS011;11310;51.528;21.204;2023-11-19T06:05:07;13.18;;;6.15;;
22282;SDS011;11310;51.528;21.204;2023-11-19T06:07:39;11.85;;;5.82;;
22282;SDS011;11310;51.528;21.204;2023-11-19T06:10:08;12.18;;;5.53;;
22282;SDS011;11310;51.528;21.204;2023-11-19T06:12:41;10.27;;;4.80;;
22282;SDS011;11310;51.528;21.204;2023-11-19T06:15:16;10.38;;;5.18;;
22282;SDS011;11310;51.528;21.204;2023-11-19T06:17:49;10.63;;;5.50;;
22282;SDS011;11310;51.528;21.204;2023-11-19T06:20:18;11.40;;;5.72;;
22282;SDS011;11310;51.528;21.204;2023-11-19T06:22:48;10.73;;;5.45;;
22282;SDS011;11310;51.528;21.204;2023-11-19T06:25:21;12.88;;;6.20;;
22282;SDS011;11310;51.528;21.204;2023-11-19T06:27:52;10.05;;;5.38;;
22282;SDS011;11310;51.528;21.204;2023-11-19T06:30:29;11.27;;;5.22;;
22282;SDS011;11310;51.528;21.204;2023-11-19T06:33:00;10.20;;;5.70;;
22282;SDS011;11310;51.528;21.204;2023-11-19T06:35:31;12.25;;;6.88;;
22282;SDS011;11310;51.528;21.204;2023-11-19T06:38:07;13.63;;;6.47;;
22282;SDS011;11310;51.528;21.204;2023-11-19T06:40:37;11.73;;;5.88;;
22282;SDS011;11310;51.528;21.204;2023-11-19T06:43:15;12.27;;;5.45;;
22282;SDS011;11310;51.528;21.204;2023-11-19T06:45:50;10.30;;;5.00;;
22282;SDS011;11310;51.528;21.204;2023-11-19T06:48:21;11.60;;;5.55;;
22282;SDS011;11310;51.528;21.204;2023-11-19T06:50:53;26.95;;;10.68;;
22282;SDS011;11310;51.528;21.204;2023-11-19T06:53:22;40.95;;;15.52;;
22282;SDS011;11310;51.528;21.204;2023-11-19T06:55:51;54.17;;;22.02;;
22282;SDS011;11310;51.528;21.204;2023-11-19T06:58:25;40.65;;;15.93;;
22282;SDS011;11310;51.528;21.204;2023-11-19T07:00:54;21.60;;;9.32;;
22282;SDS011;11310;51.528;21.204;2023-11-19T07:03:25;16.02;;;7.97;;
22282;SDS011;11310;51.528;21.204;2023-11-19T07:05:57;12.15;;;5.78;;
22282;SDS011;11310;51.528;21.204;2023-11-19T07:08:32;14.02;;;6.93;;
22282;SDS011;11310;51.528;21.204;2023-11-19T07:11:05;13.68;;;6.03;;
22282;SDS011;11310;51.528;21.204;2023-11-19T07:13:42;11.27;;;5.75;;
22282;SDS011;11310;51.528;21.204;2023-11-19T07:16:15;11.90;;;5.97;;
22282;SDS011;11310;51.528;21.204;2023-11-19T07:18:43;13.27;;;6.15;;
22282;SDS011;11310;51.528;21.204;2023-11-19T07:21:14;10.52;;;5.63;;
22282;SDS011;11310;51.528;21.204;2023-11-19T07:23:52;13.63;;;6.38;;
22282;SDS011;11310;51.528;21.204;2023-11-19T07:26:21;20.13;;;8.90;;
22282;SDS011;11310;51.528;21.204;2023-11-19T07:28:55;18.95;;;7.63;;
22282;SDS011;11310;51.528;21.204;2023-11-19T07:31:28;19.08;;;7.68;;
22282;SDS011;11310;51.528;21.204;2023-11-19T07:33:57;15.23;;;7.50;;
22282;SDS011;11310;51.528;21.204;2023-11-19T07:36:28;13.73;;;6.97;;
22282;SDS011;11310;51.528;21.204;2023-11-19T07:38:59;14.23;;;6.40;;
22282;SDS011;11310;51.528;21.204;2023-11-19T07:41:31;12.73;;;6.43;;
22282;SDS011;11310;51.528;21.204;2023-11-19T07:44:06;13.70;;;7.03;;
22282;SDS011;11310;51.528;21.204;2023-11-19T07:46:35;15.20;;;7.47;;
22282;SDS011;11310;51.528;21.204;2023-11-19T07:49:05;19.13;;;9.77;;
22282;SDS011;11310;51.528;21.204;2023-11-19T07:51:35;15.77;;;8.25;;
22282;SDS011;11310;51.528;21.204;2023-11-19T07:54:07;20.30;;;9.15;;
22282;SDS011;11310;51.528;21.204;2023-11-19T07:56:38;20.20;;;8.55;;
22282;SDS011;11310;51.528;21.204;2023-11-19T07:59:09;23.42;;;10.38;;
22282;SDS011;11310;51.528;21.204;2023-11-19T08:01:43;26.63;;;10.30;;
22282;SDS011;11310;51.528;21.204;2023-11-19T08:04:13;26.40;;;10.27;;
22282;SDS011;11310;51.528;21.204;2023-11-19T08:06:43;29.10;;;11.88;;
22282;SDS011;11310;51.528;21.204;2023-11-19T08:09:12;22.83;;;10.02;;
22282;SDS011;11310;51.528;21.204;2023-11-19T08:11:41;39.58;;;14.90;;
22282;SDS011;11310;51.528;21.204;2023-11-19T08:14:15;28.80;;;13.50;;
22282;SDS011;11310;51.528;21.204;2023-11-19T08:16:43;26.42;;;11.25;;
22282;SDS011;11310;51.528;21.204;2023-11-19T08:19:14;33.03;;;11.20;;
22282;SDS011;11310;51.528;21.204;2023-11-19T08:21:43;26.23;;;10.48;;
22282;SDS011;11310;51.528;21.204;2023-11-19T08:24:19;24.90;;;10.63;;
22282;SDS011;11310;51.528;21.204;2023-11-19T08:26:49;20.85;;;8.68;;
22282;SDS011;11310;51.528;21.204;2023-11-19T08:29:23;24.20;;;10.75;;
22282;SDS011;11310;51.528;21.204;2023-11-19T08:31:53;45.65;;;16.92;;
22282;SDS011;11310;51.528;21.204;2023-11-19T08:34:24;33.80;;;17.05;;
22282;SDS011;11310;51.528;21.204;2023-11-19T08:36:53;27.80;;;13.05;;
22282;SDS011;11310;51.528;21.204;2023-11-19T08:39:22;30.35;;;12.38;;
22282;SDS011;11310;51.528;21.204;2023-11-19T08:41:57;28.02;;;11.68;;
22282;SDS011;11310;51.528;21.204;2023-11-19T08:44:36;25.38;;;11.93;;
22282;SDS011;11310;51.528;21.204;2023-11-19T08:47:09;25.63;;;12.65;;
22282;SDS011;11310;51.528;21.204;2023-11-19T08:49:40;22.05;;;11.05;;
22282;SDS011;11310;51.528;21.204;2023-11-19T08:52:09;21.23;;;10.38;;
22282;SDS011;11310;51.528;21.204;2023-11-19T08:54:38;23.02;;;11.63;;
22282;SDS011;11310;51.528;21.204;2023-11-19T08:57:11;21.55;;;11.13;;
22282;SDS011;11310;51.528;21.204;2023-11-19T08:59:45;47.63;;;20.40;;
22282;SDS011;11310;51.528;21.204;2023-11-19T09:02:14;32.93;;;15.00;;
22282;SDS011;11310;51.528;21.204;2023-11-19T09:04:48;39.42;;;15.75;;
22282;SDS011;11310;51.528;21.204;2023-11-19T09:07:23;31.90;;;14.88;;
22282;SDS011;11310;51.528;21.204;2023-11-19T09:09:57;26.67;;;12.98;;
22282;SDS011;11310;51.528;21.204;2023-11-19T09:12:26;35.45;;;15.10;;
22282;SDS011;11310;51.528;21.204;2023-11-19T09:15:00;30.33;;;15.00;;
22282;SDS011;11310;51.528;21.204;2023-11-19T09:17:29;44.38;;;19.83;;
22282;SDS011;11310;51.528;21.204;2023-11-19T09:20:01;65.13;;;23.35;;
22282;SDS011;11310;51.528;21.204;2023-11-19T09:22:34;74.05;;;29.23;;
22282;SDS011;11310;51.528;21.204;2023-11-19T09:25:04;176.20;;;59.20;;
22282;SDS011;11310;51.528;21.204;2023-11-19T09:27:33;186.82;;;62.58;;
22282;SDS011;11310;51.528;21.204;2023-11-19T09:30:06;138.05;;;48.33;;
22282;SDS011;11310;51.528;21.204;2023-11-19T09:32:36;87.85;;;33.00;;
22282;SDS011;11310;51.528;21.204;2023-11-19T09:35:08;86.35;;;34.85;;
22282;SDS011;11310;51.528;21.204;2023-11-19T09:37:40;81.97;;;35.30;;
22282;SDS011;11310;51.528;21.204;2023-11-19T09:40:09;80.65;;;30.33;;
22282;SDS011;11310;51.528;21.204;2023-11-19T09:42:41;88.95;;;31.88;;
22282;SDS011;11310;51.528;21.204;2023-11-19T09:45:14;94.68;;;34.78;;
22282;SDS011;11310;51.528;21.204;2023-11-19T09:47:45;42.95;;;19.55;;
22282;SDS011;11310;51.528;21.204;2023-11-19T09:50:20;40.03;;;18.25;;
22282;SDS011;11310;51.528;21.204;2023-11-19T09:52:50;33.95;;;15.63;;
22282;SDS011;11310;51.528;21.204;2023-11-19T09:55:19;36.38;;;17.25;;
22282;SDS011;11310;51.528;21.204;2023-11-19T09:57:49;39.22;;;17.50;;
22282;SDS011;11310;51.528;21.204;2023-11-19T10:00:26;43.25;;;17.08;;
22282;SDS011;11310;51.528;21.204;2023-11-19T10:02:56;40.47;;;17.83;;
22282;SDS011;11310;51.528;21.204;2023-11-19T10:07:57;36.55;;;16.33;;
22282;SDS011;11310;51.528;21.204;2023-11-19T10:10:26;41.75;;;16.65;;
22282;SDS011;11310;51.528;21.204;2023-11-19T10:12:56;34.97;;;16.80;;
22282;SDS011;11310;51.528;21.204;2023-11-19T10:15:30;33.78;;;14.73;;
22282;SDS011;11310;51.528;21.204;2023-11-19T10:18:05;39.60;;;17.75;;
22282;SDS011;11310;51.528;21.204;2023-11-19T10:20:40;37.08;;;16.75;;
22282;SDS011;11310;51.528;21.204;2023-11-19T10:23:14;38.90;;;16.17;;
22282;SDS011;11310;51.528;21.204;2023-11-19T10:26:02;32.03;;;15.50;;
22282;SDS011;11310;51.528;21.204;2023-11-19T10:28:38;28.08;;;13.27;;
22282;SDS011;11310;51.528;21.204;2023-11-19T10:31:12;34.30;;;15.55;;
22282;SDS011;11310;51.528;21.204;2023-11-19T10:33:43;31.45;;;14.63;;
22282;SDS011;11310;51.528;21.204;2023-11-19T10:36:13;32.38;;;13.30;;
22282;SDS011;11310;51.528;21.204;2023-11-19T10:38:53;33.33;;;15.57;;
22282;SDS011;11310;51.528;21.204;2023-11-19T10:41:27;39.17;;;17.50;;
22282;SDS011;11310;51.528;21.204;2023-11-19T10:44:00;35.50;;;15.18;;
22282;SDS011;11310;51.528;21.204;2023-11-19T10:46:39;26.88;;;12.05;;
22282;SDS011;11310;51.528;21.204;2023-11-19T10:49:15;25.70;;;11.52;;
22282;SDS011;11310;51.528;21.204;2023-11-19T10:51:48;24.73;;;11.40;;
22282;SDS011;11310;51.528;21.204;2023-11-19T10:54:18;19.27;;;9.70;;
22282;SDS011;11310;51.528;21.204;2023-11-19T10:56:48;23.13;;;11.13;;
22282;SDS011;11310;51.528;21.204;2023-11-19T10:59:24;19.08;;;9.60;;
22282;SDS011;11310;51.528;21.204;2023-11-19T11:02:03;20.33;;;9.38;;
22282;SDS011;11310;51.528;21.204;2023-11-19T11:04:40;19.73;;;9.55;;
22282;SDS011;11310;51.528;21.204;2023-11-19T11:07:16;23.90;;;9.52;;
22282;SDS011;11310;51.528;21.204;2023-11-19T11:10:02;19.55;;;8.88;;
22282;SDS011;11310;51.528;21.204;2023-11-19T11:12:33;19.95;;;9.70;;
22282;SDS011;11310;51.528;21.204;2023-11-19T11:15:10;20.52;;;9.85;;
22282;SDS011;11310;51.528;21.204;2023-11-19T11:17:44;18.80;;;8.65;;
22282;SDS011;11310;51.528;21.204;2023-11-19T11:20:14;16.33;;;7.90;;
22282;SDS011;11310;51.528;21.204;2023-11-19T11:22:52;17.20;;;8.65;;
22282;SDS011;11310;51.528;21.204;2023-11-19T11:25:40;19.45;;;9.38;;
22282;SDS011;11310;51.528;21.204;2023-11-19T11:28:24;23.08;;;9.25;;
22282;SDS011;11310;51.528;21.204;2023-11-19T11:31:15;22.90;;;10.30;;
22282;SDS011;11310;51.528;21.204;2023-11-19T11:34:00;22.42;;;10.65;;
22282;SDS011;11310;51.528;21.204;2023-11-19T11:36:48;22.13;;;10.43;;
22282;SDS011;11310;51.528;21.204;2023-11-19T11:39:36;18.45;;;9.07;;
22282;SDS011;11310;51.528;21.204;2023-11-19T11:45:03;19.83;;;9.35;;
22282;SDS011;11310;51.528;21.204;2023-11-19T11:53:33;18.55;;;9.18;;
22282;SDS011;11310;51.528;21.204;2023-11-19T11:56:06;20.90;;;10.20;;
22282;SDS011;11310;51.528;21.204;2023-11-19T11:58:43;16.95;;;8.50;;
22282;SDS011;11310;51.528;21.204;2023-11-19T12:04:00;19.55;;;8.20;;
22282;SDS011;11310;51.528;21.204;2023-11-19T12:06:33;18.50;;;8.88;;
22282;SDS011;11310;51.528;21.204;2023-11-19T12:09:04;17.70;;;9.15;;
22282;SDS011;11310;51.528;21.204;2023-11-19T12:11:38;20.65;;;10.05;;
22282;SDS011;11310;51.528;21.204;2023-11-19T12:14:17;19.77;;;9.70;;
22282;SDS011;11310;51.528;21.204;2023-11-19T12:20:24;21.13;;;9.70;;
22282;SDS011;11310;51.528;21.204;2023-11-19T12:23:04;27.35;;;10.25;;
22282;SDS011;11310;51.528;21.204;2023-11-19T12:25:46;21.52;;;9.32;;
22282;SDS011;11310;51.528;21.204;2023-11-19T12:28:28;22.13;;;9.40;;
22282;SDS011;11310;51.528;21.204;2023-11-19T12:31:09;21.45;;;9.65;;
22282;SDS011;11310;51.528;21.204;2023-11-19T12:33:40;27.27;;;10.85;;
22282;SDS011;11310;51.528;21.204;2023-11-19T12:36:12;22.50;;;10.75;;
22282;SDS011;11310;51.528;21.204;2023-11-19T12:38:44;25.00;;;11.15;;
22282;SDS011;11310;51.528;21.204;2023-11-19T12:41:18;23.80;;;11.73;;
22282;SDS011;11310;51.528;21.204;2023-11-19T12:43:50;34.92;;;14.52;;
22282;SDS011;11310;51.528;21.204;2023-11-19T12:46:23;32.03;;;13.02;;
22282;SDS011;11310;51.528;21.204;2023-11-19T12:48:54;26.83;;;12.98;;
22282;SDS011;11310;51.528;21.204;2023-11-19T12:51:30;26.70;;;13.43;;
22282;SDS011;11310;51.528;21.204;2023-11-19T12:54:00;22.30;;;11.98;;
22282;SDS011;11310;51.528;21.204;2023-11-19T12:56:32;22.70;;;10.70;;
22282;SDS011;11310;51.528;21.204;2023-11-19T12:59:12;26.80;;;10.65;;
22282;SDS011;11310;51.528;21.204;2023-11-19T13:01:53;20.48;;;10.27;;
22282;SDS011;11310;51.528;21.204;2023-11-19T13:04:27;24.60;;;10.02;;
22282;SDS011;11310;51.528;21.204;2023-11-19T13:07:07;24.67;;;9.85;;
22282;SDS011;11310;51.528;21.204;2023-11-19T13:09:38;22.13;;;10.10;;
22282;SDS011;11310;51.528;21.204;2023-11-19T13:12:14;24.67;;;10.73;;
22282;SDS011;11310;51.528;21.204;2023-11-19T13:14:44;23.55;;;10.88;;
22282;SDS011;11310;51.528;21.204;2023-11-19T13:17:14;25.27;;;10.90;;
22282;SDS011;11310;51.528;21.204;2023-11-19T13:19:47;22.52;;;9.40;;
22282;SDS011;11310;51.528;21.204;2023-11-19T13:22:19;22.48;;;9.95;;
22282;SDS011;11310;51.528;21.204;2023-11-19T13:24:54;19.15;;;9.50;;
22282;SDS011;11310;51.528;21.204;2023-11-19T13:27:35;21.23;;;9.57;;
22282;SDS011;11310;51.528;21.204;2023-11-19T13:30:07;18.20;;;8.52;;
22282;SDS011;11310;51.528;21.204;2023-11-19T13:32:46;20.85;;;8.65;;
22282;SDS011;11310;51.528;21.204;2023-11-19T13:35:18;17.88;;;9.10;;
22282;SDS011;11310;51.528;21.204;2023-11-19T13:37:49;18.23;;;9.50;;
22282;SDS011;11310;51.528;21.204;2023-11-19T13:40:23;21.45;;;9.45;;
22282;SDS011;11310;51.528;21.204;2023-11-19T13:42:54;23.75;;;9.82;;
22282;SDS011;11310;51.528;21.204;2023-11-19T13:45:25;16.25;;;9.10;;
22282;SDS011;11310;51.528;21.204;2023-11-19T13:48:02;18.08;;;9.80;;
22282;SDS011;11310;51.528;21.204;2023-11-19T13:50:30;28.42;;;14.05;;
22282;SDS011;11310;51.528;21.204;2023-11-19T13:53:11;29.10;;;13.25;;
22282;SDS011;11310;51.528;21.204;2023-11-19T13:55:50;20.98;;;10.23;;
22282;SDS011;11310;51.528;21.204;2023-11-19T13:58:22;20.48;;;9.88;;
22282;SDS011;11310;51.528;21.204;2023-11-19T14:00:53;22.42;;;9.98;;
22282;SDS011;11310;51.528;21.204;2023-11-19T14:03:22;22.45;;;10.10;;
22282;SDS011;11310;51.528;21.204;2023-11-19T14:05:51;20.33;;;10.30;;
22282;SDS011;11310;51.528;21.204;2023-11-19T14:08:30;23.70;;;9.82;;
22282;SDS011;11310;51.528;21.204;2023-11-19T14:11:02;29.08;;;12.15;;
22282;SDS011;11310;51.528;21.204;2023-11-19T14:13:32;24.52;;;12.05;;
22282;SDS011;11310;51.528;21.204;2023-11-19T14:16:05;30.25;;;12.30;;
22282;SDS011;11310;51.528;21.204;2023-11-19T14:18:37;23.67;;;10.70;;
22282;SDS011;11310;51.528;21.204;2023-11-19T14:21:06;26.20;;;11.65;;
22282;SDS011;11310;51.528;21.204;2023-11-19T14:23:35;31.77;;;13.30;;
22282;SDS011;11310;51.528;21.204;2023-11-19T14:26:20;24.47;;;11.00;;
22282;SDS011;11310;51.528;21.204;2023-11-19T14:28:52;24.30;;;11.75;;
22282;SDS011;11310;51.528;21.204;2023-11-19T14:31:22;31.58;;;12.55;;
22282;SDS011;11310;51.528;21.204;2023-11-19T14:33:50;26.40;;;10.98;;
22282;SDS011;11310;51.528;21.204;2023-11-19T14:36:24;29.48;;;12.15;;
22282;SDS011;11310;51.528;21.204;2023-11-19T14:38:54;22.10;;;10.75;;
22282;SDS011;11310;51.528;21.204;2023-11-19T14:41:27;19.17;;;9.32;;
22282;SDS011;11310;51.528;21.204;2023-11-19T14:43:55;23.77;;;10.93;;
22282;SDS011;11310;51.528;21.204;2023-11-19T14:46:28;20.38;;;9.65;;
22282;SDS011;11310;51.528;21.204;2023-11-19T14:48:58;18.25;;;9.10;;
22282;SDS011;11310;51.528;21.204;2023-11-19T14:51:27;27.38;;;13.52;;
22282;SDS011;11310;51.528;21.204;2023-11-19T14:53:59;31.00;;;14.00;;
22282;SDS011;11310;51.528;21.204;2023-11-19T14:56:31;24.33;;;11.27;;
22282;SDS011;11310;51.528;21.204;2023-11-19T14:59:01;20.63;;;10.50;;
22282;SDS011;11310;51.528;21.204;2023-11-19T15:01:33;19.08;;;8.82;;
22282;SDS011;11310;51.528;21.204;2023-11-19T15:04:04;25.98;;;11.68;;
22282;SDS011;11310;51.528;21.204;2023-11-19T15:06:34;19.73;;;8.77;;
22282;SDS011;11310;51.528;21.204;2023-11-19T15:09:06;20.77;;;9.43;;
22282;SDS011;11310;51.528;21.204;2023-11-19T15:11:38;18.45;;;7.95;;